St Leonards-on-Sea, United Kingdom
Current Conditions -  °F | °C
As of 1:20 PM on Thursday 30 Oct 2014 (Local Time) from EGMD Reporting Station
Clear Clear  
Wind Chill: 18°   Ceiling: Unl
Heat Index: 18°   Visibility: 6mi
Dew Point: 15°   Wind: 17mph
Humidity: 83%   Direction: 200°SSW
Pressure: 30.09"   Gusts: NA
Location:  50.85°N, 0.56°E
Report Text: EGMD 301320Z 20015KT CAVOK 18/15 Q1019
Loading
Personal Weather Stations






























Interactive Weather Map
Tropical Storm Tracking
New forecast layout! Learn more

10-Day Weather Forecast

Advertisements
Track Severe Weather on mobile